Time;durP1;ratioP1;P1;durP2;ratioP2;P2;SDS_P1;SDS_P2;PMS_P1;PMS_P2;Temp;Humidity;BMP_temperature;BMP_pressure;BME280_temperature;BME280_humidity;BME280_pressure;Samples;Min_cycle;Max_cycle;Signal;HPM_P1;HPM_P2
2022/07/08 00:00:43;;;;;;;0.55;0.55;;;;;;;;;;1786727;79;26278;-43
2022/07/08 00:03:10;;;;;;;0.70;0.60;;;;;;;;;;1794863;79;26353;-43
2022/07/08 00:05:38;;;;;;;0.75;0.70;;;;;;;;;;1779764;80;26282;-43
2022/07/08 00:08:05;;;;;;;0.60;0.60;;;;;;;;;;1790530;79;26947;-48
2022/07/08 00:10:33;;;;;;;0.60;0.60;;;;;;;;;;1788587;79;26260;-47
2022/07/08 00:13:00;;;;;;;0.50;0.50;;;;;;;;;;1782790;80;26804;-45
2022/07/08 00:15:29;;;;;;;0.60;0.55;;;;;;;;;;1782490;79;26735;-46
2022/07/08 00:17:56;;;;;;;0.78;0.78;;;;;;;;;;1784230;79;26316;-44
2022/07/08 00:20:24;;;;;;;0.53;0.53;;;;;;;;;;1793061;79;26279;-46
2022/07/08 00:22:51;;;;;;;0.50;0.50;;;;;;;;;;1783041;79;26654;-45
2022/07/08 00:25:18;;;;;;;0.60;0.60;;;;;;;;;;1784036;79;26715;-44
2022/07/08 00:27:46;;;;;;;0.50;0.50;;;;;;;;;;1790766;79;27339;-46
2022/07/08 00:30:13;;;;;;;0.50;0.50;;;;;;;;;;1780076;79;26568;-43
2022/07/08 00:32:40;;;;;;;0.60;0.50;;;;;;;;;;1788880;80;26274;-46
2022/07/08 00:35:08;;;;;;;0.60;0.60;;;;;;;;;;1788723;79;26336;-51
2022/07/08 00:37:35;;;;;;;0.60;0.60;;;;;;;;;;1792721;79;26267;-49
2022/07/08 00:40:03;;;;;;;0.60;0.60;;;;;;;;;;1777528;80;26270;-46
2022/07/08 00:42:31;;;;;;;0.50;0.50;;;;;;;;;;1788799;79;26366;-44
2022/07/08 00:44:58;;;;;;;0.60;0.60;;;;;;;;;;1783617;80;26310;-43
2022/07/08 00:47:26;;;;;;;0.70;0.70;;;;;;;;;;1788361;79;26361;-43
2022/07/08 00:49:53;;;;;;;0.60;0.60;;;;;;;;;;1782968;79;26345;-46
2022/07/08 00:52:21;;;;;;;1.00;0.68;;;;;;;;;;1789195;79;26364;-45
2022/07/08 00:54:49;;;;;;;0.50;0.50;;;;;;;;;;1780325;79;26325;-52
2022/07/08 00:57:17;;;;;;;0.70;0.70;;;;;;;;;;1777142;79;26341;-43
2022/07/08 00:59:44;;;;;;;0.50;0.50;;;;;;;;;;1781841;79;26376;-47
2022/07/08 01:02:12;;;;;;;0.72;0.50;;;;;;;;;;1777956;80;26863;-43
2022/07/08 01:04:39;;;;;;;0.50;0.50;;;;;;;;;;1791868;79;26280;-43
2022/07/08 01:07:07;;;;;;;0.88;0.88;;;;;;;;;;1787055;79;26300;-48
2022/07/08 01:09:34;;;;;;;0.70;0.70;;;;;;;;;;1784421;80;26922;-45
2022/07/08 01:12:02;;;;;;;0.60;0.60;;;;;;;;;;1793565;79;26352;-43
2022/07/08 01:14:29;;;;;;;0.60;0.60;;;;;;;;;;1785734;79;26322;-49
2022/07/08 01:16:56;;;;;;;0.50;0.50;;;;;;;;;;1795372;79;26295;-43
2022/07/08 01:19:23;;;;;;;0.68;0.68;;;;;;;;;;1785356;80;26314;-46
2022/07/08 01:21:51;;;;;;;0.53;0.53;;;;;;;;;;1788370;80;26302;-45
2022/07/08 01:24:18;;;;;;;0.50;0.50;;;;;;;;;;1785070;79;26575;-45
2022/07/08 01:26:46;;;;;;;0.60;0.60;;;;;;;;;;1794953;79;26372;-46
2022/07/08 01:29:14;;;;;;;0.70;0.70;;;;;;;;;;1786701;79;26286;-43
2022/07/08 01:31:41;;;;;;;0.60;0.60;;;;;;;;;;1788709;80;26302;-43
2022/07/08 01:34:08;;;;;;;0.40;0.40;;;;;;;;;;1790624;79;27215;-47
2022/07/08 01:36:36;;;;;;;0.42;0.42;;;;;;;;;;1788832;79;26346;-44
2022/07/08 01:39:03;;;;;;;0.60;0.60;;;;;;;;;;1785759;80;26598;-46
2022/07/08 01:41:30;;;;;;;0.50;0.50;;;;;;;;;;1773363;80;26367;-47
2022/07/08 01:43:58;;;;;;;0.50;0.50;;;;;;;;;;1776606;80;26278;-47
2022/07/08 01:46:25;;;;;;;0.50;0.50;;;;;;;;;;1798719;79;26690;-43
2022/07/08 01:48:53;;;;;;;0.60;0.60;;;;;;;;;;1786494;79;26334;-45
2022/07/08 01:51:20;;;;;;;0.50;0.50;;;;;;;;;;1781470;80;26278;-46
2022/07/08 01:53:47;;;;;;;0.72;0.60;;;;;;;;;;1789227;80;26278;-44
2022/07/08 01:56:14;;;;;;;0.62;0.62;;;;;;;;;;1789836;79;26598;-43
2022/07/08 01:58:42;;;;;;;0.60;0.60;;;;;;;;;;1797526;78;26274;-48
2022/07/08 02:01:09;;;;;;;0.45;0.45;;;;;;;;;;1786598;79;26321;-44
2022/07/08 02:03:36;;;;;;;0.50;0.50;;;;;;;;;;1772794;79;26384;-47
2022/07/08 02:06:04;;;;;;;0.60;0.60;;;;;;;;;;1783363;80;26274;-47
2022/07/08 02:08:31;;;;;;;0.60;0.60;;;;;;;;;;1773753;79;26376;-43
2022/07/08 02:13:44;;;;;;;0.50;0.50;;;;;;;;;;1784247;80;26384;-50
2022/07/08 02:16:11;;;;;;;0.40;0.40;;;;;;;;;;1795849;79;26306;-49
2022/07/08 02:18:38;;;;;;;0.60;0.60;;;;;;;;;;1792756;79;26266;-45
2022/07/08 02:21:05;;;;;;;0.60;0.57;;;;;;;;;;1800721;79;26278;-45
2022/07/08 02:23:33;;;;;;;0.50;0.50;;;;;;;;;;1788800;80;26395;-45
2022/07/08 02:26:00;;;;;;;0.60;0.60;;;;;;;;;;1783757;80;26301;-48
2022/07/08 02:28:27;;;;;;;0.50;0.50;;;;;;;;;;1785069;79;26757;-48
2022/07/08 02:30:54;;;;;;;0.50;0.50;;;;;;;;;;1789235;80;26799;-48
2022/07/08 02:33:22;;;;;;;0.40;0.40;;;;;;;;;;1786103;79;26703;-45
2022/07/08 02:35:49;;;;;;;0.53;0.53;;;;;;;;;;1772037;79;26754;-43
2022/07/08 02:38:16;;;;;;;0.40;0.40;;;;;;;;;;1775153;80;26728;-46
2022/07/08 02:40:43;;;;;;;0.72;0.60;;;;;;;;;;1789102;80;26360;-43
2022/07/08 02:43:11;;;;;;;0.50;0.50;;;;;;;;;;1788915;80;26295;-44
2022/07/08 02:45:38;;;;;;;0.68;0.68;;;;;;;;;;1780577;79;26302;-43
2022/07/08 02:48:06;;;;;;;0.53;0.53;;;;;;;;;;1782410;80;26860;-51
2022/07/08 02:50:34;;;;;;;0.60;0.60;;;;;;;;;;1792872;79;26283;-45
2022/07/08 02:53:01;;;;;;;1.35;0.60;;;;;;;;;;1788761;80;26274;-44
2022/07/08 02:55:28;;;;;;;0.60;0.60;;;;;;;;;;1786328;79;26227;-45
2022/07/08 02:57:55;;;;;;;0.60;0.60;;;;;;;;;;1775510;80;26285;-48
2022/07/08 03:00:23;;;;;;;0.65;0.65;;;;;;;;;;1806454;78;26299;-42
2022/07/08 03:02:50;;;;;;;0.50;0.50;;;;;;;;;;1812347;78;26367;-51
2022/07/08 03:05:18;;;;;;;0.60;0.60;;;;;;;;;;1797531;79;26334;-45
2022/07/08 03:07:45;;;;;;;0.60;0.60;;;;;;;;;;1809317;79;26658;-45
2022/07/08 03:10:12;;;;;;;0.50;0.50;;;;;;;;;;1807206;78;26337;-51
2022/07/08 03:12:40;;;;;;;0.60;0.60;;;;;;;;;;1813723;78;26274;-42
2022/07/08 03:15:08;;;;;;;0.60;0.60;;;;;;;;;;1807812;78;26227;-48
2022/07/08 03:17:36;;;;;;;0.72;0.60;;;;;;;;;;1807959;79;26275;-48
2022/07/08 03:20:03;;;;;;;0.60;0.60;;;;;;;;;;1813943;78;26360;-43
2022/07/08 03:22:31;;;;;;;0.60;0.60;;;;;;;;;;1813046;79;26260;-46
2022/07/08 03:24:58;;;;;;;0.60;0.60;;;;;;;;;;1820036;78;26637;-49
2022/07/08 03:27:25;;;;;;;0.70;0.70;;;;;;;;;;1818447;78;26266;-44
2022/07/08 03:29:52;;;;;;;0.45;0.45;;;;;;;;;;1808335;79;26286;-43
2022/07/08 03:32:20;;;;;;;0.55;0.55;;;;;;;;;;1810166;79;26285;-48
2022/07/08 03:34:47;;;;;;;0.70;0.70;;;;;;;;;;1794803;79;26289;-49
2022/07/08 03:37:14;;;;;;;0.55;0.55;;;;;;;;;;1797316;78;26340;-46
2022/07/08 03:39:41;;;;;;;0.55;0.55;;;;;;;;;;1803509;79;26302;-46
2022/07/08 03:42:09;;;;;;;0.70;0.70;;;;;;;;;;1811501;78;26739;-46
2022/07/08 03:44:36;;;;;;;0.80;0.80;;;;;;;;;;1807078;78;26280;-45
2022/07/08 03:47:04;;;;;;;0.60;0.60;;;;;;;;;;1798534;78;26265;-43
2022/07/08 03:49:31;;;;;;;0.60;0.60;;;;;;;;;;1809286;79;26932;-48
2022/07/08 03:51:58;;;;;;;0.70;0.70;;;;;;;;;;1803557;78;26357;-50
2022/07/08 03:54:25;;;;;;;1.42;0.80;;;;;;;;;;1810931;79;26713;-43
2022/07/08 03:56:53;;;;;;;0.65;0.65;;;;;;;;;;1811785;78;26289;-52
2022/07/08 03:59:20;;;;;;;1.90;0.70;;;;;;;;;;1820170;78;26282;-46
2022/07/08 04:01:47;;;;;;;0.60;0.60;;;;;;;;;;1791493;79;26310;-45
2022/07/08 04:04:14;;;;;;;0.55;0.55;;;;;;;;;;1788902;80;26300;-47
2022/07/08 04:06:42;;;;;;;0.62;0.62;;;;;;;;;;1785225;80;26251;-43
2022/07/08 04:09:09;;;;;;;0.80;0.80;;;;;;;;;;1788360;80;26274;-45
2022/07/08 04:11:37;;;;;;;0.57;0.57;;;;;;;;;;1790516;79;26278;-43
2022/07/08 04:14:04;;;;;;;0.50;0.50;;;;;;;;;;1780138;80;26394;-43
2022/07/08 04:16:31;;;;;;;0.50;0.50;;;;;;;;;;1788963;80;26333;-49
2022/07/08 04:18:59;;;;;;;0.60;0.60;;;;;;;;;;1789120;80;26291;-43
2022/07/08 04:21:26;;;;;;;0.70;0.70;;;;;;;;;;1798144;79;26763;-45
2022/07/08 04:23:58;;;;;;;0.62;0.62;;;;;;;;;;1789749;79;26781;-50
2022/07/08 04:26:28;;;;;;;0.65;0.62;;;;;;;;;;1772814;79;26372;-43
2022/07/08 04:28:51;;;;;;;0.60;0.60;;;;;;;;;;1784742;79;26337;-46
2022/07/08 04:31:18;;;;;;;0.50;0.50;;;;;;;;;;1787211;80;26356;-48
2022/07/08 04:33:46;;;;;;;0.70;0.70;;;;;;;;;;1793998;79;26596;-45
2022/07/08 04:36:13;;;;;;;0.68;0.65;;;;;;;;;;1781048;80;26279;-46
2022/07/08 04:38:41;;;;;;;0.50;0.50;;;;;;;;;;1797873;79;26282;-44
2022/07/08 04:41:08;;;;;;;0.60;0.60;;;;;;;;;;1784102;79;26329;-45
2022/07/08 04:43:36;;;;;;;0.70;0.70;;;;;;;;;;1788734;80;26297;-46
2022/07/08 04:46:03;;;;;;;0.57;0.57;;;;;;;;;;1783197;79;26425;-43
2022/07/08 04:48:30;;;;;;;0.55;0.55;;;;;;;;;;1782683;80;26401;-46
2022/07/08 04:50:58;;;;;;;0.50;0.50;;;;;;;;;;1787394;79;26927;-48
2022/07/08 04:53:25;;;;;;;0.60;0.60;;;;;;;;;;1760278;81;26340;-48
2022/07/08 04:55:52;;;;;;;0.60;0.60;;;;;;;;;;1790744;79;26264;-50
2022/07/08 04:58:20;;;;;;;0.70;0.70;;;;;;;;;;1793720;79;26349;-48
2022/07/08 05:00:47;;;;;;;0.60;0.60;;;;;;;;;;1791622;79;26584;-43
2022/07/08 05:03:15;;;;;;;0.60;0.60;;;;;;;;;;1813294;79;26292;-45
2022/07/08 05:05:42;;;;;;;0.53;0.53;;;;;;;;;;1806213;79;26401;-44
2022/07/08 05:08:09;;;;;;;0.70;0.70;;;;;;;;;;1811769;78;26568;-48
2022/07/08 05:10:36;;;;;;;0.55;0.55;;;;;;;;;;1808808;78;26337;-49
2022/07/08 05:13:05;;;;;;;0.55;0.55;;;;;;;;;;1805672;79;26266;-45
2022/07/08 05:15:32;;;;;;;1.75;0.60;;;;;;;;;;1811780;79;26612;-48
2022/07/08 05:18:00;;;;;;;0.60;0.60;;;;;;;;;;1811622;79;26270;-45
2022/07/08 05:20:27;;;;;;;0.60;0.60;;;;;;;;;;1821847;78;26303;-46
2022/07/08 05:22:54;;;;;;;0.70;0.70;;;;;;;;;;1807464;78;26655;-46
2022/07/08 05:25:22;;;;;;;3.25;0.70;;;;;;;;;;1808546;79;26328;-45
2022/07/08 05:27:49;;;;;;;0.50;0.50;;;;;;;;;;1809370;78;26290;-43
2022/07/08 05:30:17;;;;;;;0.60;0.60;;;;;;;;;;1813438;78;26356;-46
2022/07/08 05:32:45;;;;;;;0.50;0.50;;;;;;;;;;1813209;79;26270;-51
2022/07/08 05:35:12;;;;;;;3.05;0.72;;;;;;;;;;1812432;79;26298;-45
2022/07/08 05:37:40;;;;;;;0.68;0.55;;;;;;;;;;1809592;79;26219;-51
2022/07/08 05:40:08;;;;;;;0.95;0.72;;;;;;;;;;1813527;78;26317;-43
2022/07/08 05:42:36;;;;;;;3.70;0.62;;;;;;;;;;1815081;78;26668;-46
2022/07/08 05:45:04;;;;;;;1.75;0.55;;;;;;;;;;1809730;79;26254;-45
2022/07/08 05:47:31;;;;;;;0.50;0.50;;;;;;;;;;1804875;78;26282;-48
2022/07/08 05:49:59;;;;;;;0.50;0.50;;;;;;;;;;1820613;78;26929;-47
2022/07/08 05:52:26;;;;;;;0.72;0.50;;;;;;;;;;1804787;79;26364;-48
2022/07/08 05:54:54;;;;;;;0.60;0.60;;;;;;;;;;1808225;78;26383;-44
2022/07/08 05:57:21;;;;;;;2.37;0.70;;;;;;;;;;1809442;79;26769;-43
2022/07/08 05:59:50;;;;;;;0.72;0.72;;;;;;;;;;1813683;79;26784;-47
2022/07/08 06:02:18;;;;;;;0.50;0.50;;;;;;;;;;1788622;78;26844;-49
2022/07/08 06:04:45;;;;;;;0.60;0.60;;;;;;;;;;1788589;79;26383;-48
2022/07/08 06:07:13;;;;;;;1.35;0.60;;;;;;;;;;1786111;80;26368;-45
2022/07/08 06:09:40;;;;;;;0.72;0.70;;;;;;;;;;1785258;80;26551;-51
2022/07/08 06:12:08;;;;;;;0.60;0.60;;;;;;;;;;1787140;79;26313;-47
2022/07/08 06:14:35;;;;;;;0.50;0.50;;;;;;;;;;1783975;79;26401;-43
2022/07/08 06:17:02;;;;;;;0.60;0.60;;;;;;;;;;1786609;79;26777;-47
2022/07/08 06:19:30;;;;;;;1.55;0.60;;;;;;;;;;1814440;79;26534;-44
2022/07/08 06:21:57;;;;;;;2.35;0.50;;;;;;;;;;1813732;78;26338;-47
2022/07/08 06:24:24;;;;;;;1.05;0.70;;;;;;;;;;1815197;79;26793;-44
2022/07/08 06:29:20;;;;;;;0.60;0.60;;;;;;;;;;1900838;74;28525;-48
2022/07/08 06:31:47;;;;;;;0.65;0.65;;;;;;;;;;1876625;75;26278;-47
2022/07/08 06:34:15;;;;;;;0.57;0.57;;;;;;;;;;1876815;75;26730;-45
2022/07/08 06:36:42;;;;;;;0.50;0.50;;;;;;;;;;1878855;76;27670;-46
2022/07/08 06:39:09;;;;;;;0.40;0.40;;;;;;;;;;1880733;76;26342;-44
2022/07/08 06:41:36;;;;;;;0.60;0.60;;;;;;;;;;1876924;76;26339;-48
2022/07/08 06:44:04;;;;;;;0.50;0.50;;;;;;;;;;1876679;76;26830;-44
2022/07/08 06:46:32;;;;;;;0.65;0.45;;;;;;;;;;1874351;75;26362;-44
2022/07/08 06:48:59;;;;;;;1.55;0.60;;;;;;;;;;1885611;75;26420;-48
2022/07/08 06:51:27;;;;;;;0.50;0.50;;;;;;;;;;1888764;75;26309;-51
2022/07/08 06:56:40;;;;;;;0.55;0.55;;;;;;;;;;1878695;75;26348;-55
2022/07/08 06:59:07;;;;;;;0.50;0.50;;;;;;;;;;1876667;75;26289;-45
2022/07/08 07:01:35;;;;;;;0.40;0.40;;;;;;;;;;1879687;75;25759;-57
2022/07/08 07:04:02;;;;;;;0.50;0.50;;;;;;;;;;1889883;75;26768;-46
2022/07/08 07:06:30;;;;;;;0.50;0.50;;;;;;;;;;1889701;75;26277;-47
2022/07/08 07:08:57;;;;;;;0.60;0.60;;;;;;;;;;1888363;75;26191;-43
2022/07/08 07:11:25;;;;;;;0.50;0.50;;;;;;;;;;1888435;75;27471;-49
2022/07/08 07:13:52;;;;;;;0.35;0.35;;;;;;;;;;1887524;75;26274;-46
2022/07/08 07:16:19;;;;;;;0.50;0.50;;;;;;;;;;1886466;75;26280;-43
2022/07/08 07:18:47;;;;;;;0.30;0.30;;;;;;;;;;1889012;75;26322;-48
2022/07/08 07:21:14;;;;;;;0.42;0.42;;;;;;;;;;1888425;75;26261;-45
2022/07/08 07:23:41;;;;;;;0.30;0.30;;;;;;;;;;1891576;75;26282;-49
2022/07/08 07:26:09;;;;;;;0.40;0.40;;;;;;;;;;1887984;75;26503;-50
2022/07/08 07:28:36;;;;;;;0.47;0.45;;;;;;;;;;1888923;75;26303;-43
2022/07/08 07:31:03;;;;;;;3.00;0.57;;;;;;;;;;1892813;75;26263;-43
2022/07/08 07:33:31;;;;;;;0.42;0.42;;;;;;;;;;1892060;75;26764;-45
2022/07/08 07:35:58;;;;;;;0.35;0.35;;;;;;;;;;1890230;75;26226;-53
2022/07/08 07:38:25;;;;;;;1.75;0.40;;;;;;;;;;1883680;75;26254;-48
2022/07/08 07:40:53;;;;;;;0.62;0.50;;;;;;;;;;1892266;75;26333;-49
2022/07/08 07:43:20;;;;;;;0.33;0.30;;;;;;;;;;1889068;75;26341;-46
2022/07/08 07:45:47;;;;;;;0.30;0.30;;;;;;;;;;1890313;75;26703;-46
2022/07/08 07:48:15;;;;;;;0.82;0.40;;;;;;;;;;1891223;75;26787;-47
2022/07/08 07:50:42;;;;;;;0.40;0.40;;;;;;;;;;1893123;75;26378;-47
2022/07/08 07:53:09;;;;;;;0.40;0.40;;;;;;;;;;1889924;75;26316;-48
2022/07/08 07:55:37;;;;;;;0.50;0.50;;;;;;;;;;1885477;75;26358;-50
2022/07/08 07:58:04;;;;;;;0.40;0.40;;;;;;;;;;1885914;75;26543;-52
2022/07/08 08:00:31;;;;;;;0.40;0.40;;;;;;;;;;1887609;75;26229;-56
2022/07/08 08:02:59;;;;;;;0.40;0.40;;;;;;;;;;1889488;75;26325;-54
2022/07/08 08:05:26;;;;;;;0.35;0.35;;;;;;;;;;1887885;75;26185;-51
2022/07/08 08:07:53;;;;;;;0.30;0.30;;;;;;;;;;1891458;75;27796;-50
2022/07/08 08:10:21;;;;;;;0.40;0.40;;;;;;;;;;1887730;74;26245;-51
2022/07/08 08:12:48;;;;;;;0.33;0.33;;;;;;;;;;1891139;75;26371;-46
2022/07/08 08:15:15;;;;;;;0.37;0.35;;;;;;;;;;1890625;74;26839;-52
2022/07/08 08:17:43;;;;;;;0.40;0.40;;;;;;;;;;1886970;75;26769;-44
2022/07/08 08:20:11;;;;;;;0.47;0.47;;;;;;;;;;1891500;75;26274;-44
2022/07/08 08:22:39;;;;;;;1.05;0.50;;;;;;;;;;1893571;75;26764;-46
2022/07/08 08:25:06;;;;;;;0.30;0.30;;;;;;;;;;1889915;75;26393;-49
2022/07/08 08:27:35;;;;;;;0.40;0.40;;;;;;;;;;1888859;75;26710;-51
2022/07/08 08:30:03;;;;;;;0.40;0.40;;;;;;;;;;1888228;75;26832;-49
2022/07/08 08:32:30;;;;;;;0.42;0.42;;;;;;;;;;1890836;75;26241;-50
2022/07/08 08:34:58;;;;;;;0.30;0.30;;;;;;;;;;1888895;75;26301;-47
2022/07/08 08:37:25;;;;;;;0.30;0.30;;;;;;;;;;1883762;75;26308;-49
2022/07/08 08:39:53;;;;;;;0.70;0.30;;;;;;;;;;1888304;74;26246;-47
2022/07/08 08:42:21;;;;;;;0.60;0.60;;;;;;;;;;1885888;75;28185;-49
2022/07/08 08:44:49;;;;;;;0.50;0.50;;;;;;;;;;1885598;74;26355;-52
2022/07/08 08:47:17;;;;;;;0.40;0.40;;;;;;;;;;1890387;75;26271;-47
2022/07/08 08:49:45;;;;;;;0.40;0.40;;;;;;;;;;1888688;75;26340;-45
2022/07/08 08:52:14;;;;;;;0.40;0.40;;;;;;;;;;1883993;74;26782;-46
2022/07/08 08:54:41;;;;;;;0.40;0.40;;;;;;;;;;1888224;75;26694;-46
2022/07/08 08:57:08;;;;;;;0.60;0.60;;;;;;;;;;1880109;75;26535;-48
2022/07/08 08:59:36;;;;;;;0.40;0.40;;;;;;;;;;1884553;75;26853;-44
2022/07/08 09:02:04;;;;;;;1.27;0.40;;;;;;;;;;1891588;75;26327;-44
2022/07/08 09:04:32;;;;;;;0.30;0.30;;;;;;;;;;1889253;75;26941;-45
2022/07/08 09:07:00;;;;;;;0.47;0.47;;;;;;;;;;1883220;75;26257;-50
2022/07/08 09:09:27;;;;;;;0.40;0.40;;;;;;;;;;1891114;75;26583;-42
2022/07/08 09:11:54;;;;;;;0.40;0.40;;;;;;;;;;1887294;75;26183;-49
2022/07/08 09:14:23;;;;;;;0.30;0.30;;;;;;;;;;1890268;74;26800;-47
2022/07/08 09:17:10;;;;;;;1.27;0.30;;;;;;;;;;1890033;75;26279;-51
2022/07/08 09:19:38;;;;;;;0.28;0.28;;;;;;;;;;1887900;75;26768;-49
2022/07/08 09:22:07;;;;;;;0.65;0.40;;;;;;;;;;1890749;75;26324;-47
2022/07/08 09:24:35;;;;;;;0.23;0.23;;;;;;;;;;1889033;75;26371;-50
2022/07/08 09:27:03;;;;;;;0.30;0.30;;;;;;;;;;1887896;75;26301;-46
2022/07/08 09:29:31;;;;;;;0.42;0.30;;;;;;;;;;1888476;75;26300;-47
2022/07/08 09:32:12;;;;;;;0.30;0.30;;;;;;;;;;1889174;75;26279;-51
2022/07/08 09:34:41;;;;;;;0.40;0.40;;;;;;;;;;1890176;75;26369;-45
2022/07/08 09:37:12;;;;;;;0.30;0.30;;;;;;;;;;1887311;75;26401;-44
2022/07/08 09:39:39;;;;;;;0.40;0.40;;;;;;;;;;1886611;75;26244;-49
2022/07/08 09:42:10;;;;;;;0.30;0.30;;;;;;;;;;1889767;75;26208;-52
2022/07/08 09:44:38;;;;;;;0.30;0.30;;;;;;;;;;1887032;75;26270;-49
2022/07/08 09:47:12;;;;;;;0.78;0.30;;;;;;;;;;1889667;74;26242;-47
2022/07/08 09:49:41;;;;;;;0.20;0.20;;;;;;;;;;1884111;75;26222;-50
2022/07/08 09:52:09;;;;;;;0.30;0.30;;;;;;;;;;1883284;75;25756;-50
2022/07/08 09:54:37;;;;;;;0.20;0.20;;;;;;;;;;1892479;75;26321;-49
2022/07/08 09:57:07;;;;;;;0.40;0.40;;;;;;;;;;1893255;74;26356;-57
2022/07/08 09:59:36;;;;;;;0.30;0.30;;;;;;;;;;1886098;74;26901;-53
2022/07/08 10:02:04;;;;;;;0.30;0.30;;;;;;;;;;1886087;74;26244;-45
2022/07/08 10:04:32;;;;;;;0.40;0.40;;;;;;;;;;1884706;74;26339;-50
2022/07/08 10:06:59;;;;;;;2.55;0.30;;;;;;;;;;1892284;75;26767;-48
2022/07/08 10:09:27;;;;;;;0.40;0.40;;;;;;;;;;1888799;75;26267;-47
2022/07/08 10:11:55;;;;;;;3.17;0.50;;;;;;;;;;1891848;75;26600;-53
2022/07/08 10:14:22;;;;;;;0.33;0.33;;;;;;;;;;1888485;75;26289;-50
2022/07/08 10:16:49;;;;;;;0.40;0.40;;;;;;;;;;1886823;75;26760;-48
2022/07/08 10:19:27;;;;;;;0.30;0.30;;;;;;;;;;1889869;75;26273;-44
2022/07/08 10:21:56;;;;;;;0.40;0.40;;;;;;;;;;1889221;75;26290;-45
2022/07/08 10:24:25;;;;;;;0.40;0.30;;;;;;;;;;1892209;75;26230;-49
2022/07/08 10:26:52;;;;;;;0.40;0.40;;;;;;;;;;1893796;75;26317;-47
2022/07/08 10:29:21;;;;;;;0.40;0.40;;;;;;;;;;1889680;75;27446;-47
2022/07/08 10:31:54;;;;;;;0.40;0.40;;;;;;;;;;1883299;75;26293;-50
2022/07/08 10:34:19;;;;;;;6.70;0.88;;;;;;;;;;1886254;75;26693;-47
2022/07/08 10:36:49;;;;;;;0.80;0.40;;;;;;;;;;1887067;75;26710;-49
2022/07/08 10:39:27;;;;;;;0.40;0.40;;;;;;;;;;1885627;75;26266;-45
2022/07/08 10:41:58;;;;;;;1.60;0.40;;;;;;;;;;1883804;75;26287;-46
2022/07/08 10:44:45;;;;;;;4.42;0.57;;;;;;;;;;1882993;75;26352;-44
2022/07/08 10:47:13;;;;;;;0.40;0.40;;;;;;;;;;1890235;75;26333;-43
2022/07/08 10:49:41;;;;;;;0.40;0.40;;;;;;;;;;1886892;75;26397;-44
2022/07/08 10:52:09;;;;;;;0.35;0.35;;;;;;;;;;1888960;75;26242;-44
2022/07/08 10:54:39;;;;;;;1.32;0.30;;;;;;;;;;1889133;75;26585;-45
2022/07/08 10:57:10;;;;;;;0.57;0.40;;;;;;;;;;1876322;75;26355;-46
2022/07/08 10:59:37;;;;;;;0.93;0.40;;;;;;;;;;1876946;75;26268;-44
2022/07/08 11:02:06;;;;;;;1.42;0.50;;;;;;;;;;1884436;75;27191;-47
2022/07/08 11:04:36;;;;;;;0.40;0.40;;;;;;;;;;1887965;75;26270;-47
2022/07/08 11:07:29;;;;;;;0.30;0.30;;;;;;;;;;1888469;75;26263;-50
2022/07/08 11:10:06;;;;;;;0.93;0.40;;;;;;;;;;1887332;75;26315;-45
2022/07/08 11:12:35;;;;;;;0.35;0.35;;;;;;;;;;1887757;75;26689;-47
2022/07/08 11:15:04;;;;;;;0.30;0.30;;;;;;;;;;1889688;75;26268;-46
2022/07/08 11:17:33;;;;;;;0.35;0.35;;;;;;;;;;1888237;75;26590;-50
2022/07/08 11:20:01;;;;;;;1.15;0.40;;;;;;;;;;1885770;75;26749;-48
2022/07/08 11:22:30;;;;;;;0.40;0.40;;;;;;;;;;1885335;75;26247;-47
2022/07/08 11:24:58;;;;;;;0.30;0.30;;;;;;;;;;1888692;75;26286;-50
2022/07/08 11:27:26;;;;;;;0.35;0.25;;;;;;;;;;1884195;75;26815;-47
2022/07/08 11:29:54;;;;;;;0.40;0.40;;;;;;;;;;1883851;75;26306;-46
2022/07/08 11:32:22;;;;;;;2.72;1.00;;;;;;;;;;1887969;75;26284;-48
2022/07/08 11:34:49;;;;;;;0.30;0.30;;;;;;;;;;1883403;75;26657;-45
2022/07/08 11:37:18;;;;;;;0.28;0.28;;;;;;;;;;1888651;75;26256;-48
2022/07/08 11:39:45;;;;;;;0.25;0.25;;;;;;;;;;1887210;75;26290;-48
2022/07/08 11:42:13;;;;;;;0.70;0.50;;;;;;;;;;1883399;75;26646;-48
2022/07/08 11:44:41;;;;;;;0.40;0.40;;;;;;;;;;1888583;75;26731;-49
2022/07/08 11:47:10;;;;;;;0.40;0.40;;;;;;;;;;1889191;75;26323;-46
2022/07/08 11:49:42;;;;;;;0.20;0.20;;;;;;;;;;1888170;75;26335;-47
2022/07/08 11:52:09;;;;;;;0.30;0.30;;;;;;;;;;1883376;75;26508;-48
2022/07/08 11:54:36;;;;;;;0.37;0.37;;;;;;;;;;1886648;75;26346;-48
2022/07/08 11:57:05;;;;;;;2.92;0.40;;;;;;;;;;1887537;75;26242;-47
2022/07/08 11:59:34;;;;;;;0.40;0.40;;;;;;;;;;1890124;75;26241;-44
2022/07/08 12:02:02;;;;;;;1.45;0.40;;;;;;;;;;1887894;75;26291;-51
2022/07/08 12:04:30;;;;;;;1.57;0.33;;;;;;;;;;1887499;75;26315;-48
2022/07/08 12:06:58;;;;;;;0.55;0.40;;;;;;;;;;1887652;75;26245;-49
2022/07/08 12:09:26;;;;;;;0.65;0.40;;;;;;;;;;1890334;75;26204;-47
2022/07/08 12:11:54;;;;;;;0.30;0.30;;;;;;;;;;1890971;75;26714;-45
2022/07/08 12:14:22;;;;;;;1.52;0.35;;;;;;;;;;1888017;75;26299;-51
2022/07/08 12:16:50;;;;;;;0.40;0.40;;;;;;;;;;1890231;75;26734;-52
2022/07/08 12:19:27;;;;;;;0.30;0.30;;;;;;;;;;1883492;75;26293;-46
2022/07/08 12:21:56;;;;;;;0.53;0.28;;;;;;;;;;1885315;75;26266;-51
2022/07/08 12:24:24;;;;;;;0.20;0.20;;;;;;;;;;1890183;75;26775;-45
2022/07/08 12:26:55;;;;;;;0.30;0.30;;;;;;;;;;1886243;75;26298;-48
2022/07/08 12:29:22;;;;;;;0.30;0.30;;;;;;;;;;1885198;75;26320;-51
2022/07/08 12:31:49;;;;;;;0.30;0.30;;;;;;;;;;1887338;75;26273;-56
2022/07/08 12:34:18;;;;;;;0.33;0.30;;;;;;;;;;1888245;75;26244;-46
2022/07/08 12:36:46;;;;;;;0.45;0.45;;;;;;;;;;1888340;75;26254;-48
2022/07/08 12:39:19;;;;;;;0.30;0.30;;;;;;;;;;1886116;75;26242;-46
2022/07/08 12:41:47;;;;;;;0.28;0.28;;;;;;;;;;1889371;75;26246;-50
2022/07/08 12:44:27;;;;;;;0.30;0.30;;;;;;;;;;1879075;75;26271;-53
2022/07/08 12:46:56;;;;;;;0.40;0.40;;;;;;;;;;1887895;74;27068;-58
2022/07/08 12:49:24;;;;;;;0.70;0.30;;;;;;;;;;1813637;78;26335;-47
2022/07/08 12:51:51;;;;;;;0.20;0.20;;;;;;;;;;1818570;78;26280;-59
2022/07/08 12:54:19;;;;;;;1.00;0.40;;;;;;;;;;1815783;78;26354;-49
2022/07/08 12:56:47;;;;;;;0.10;0.10;;;;;;;;;;1845625;77;26727;-53
2022/07/08 12:59:14;;;;;;;1.20;0.37;;;;;;;;;;1850410;77;26677;-48
2022/07/08 13:01:41;;;;;;;0.23;0.23;;;;;;;;;;1850651;77;26833;-52
2022/07/08 13:04:09;;;;;;;0.90;0.40;;;;;;;;;;1797659;77;26297;-50
2022/07/08 13:06:36;;;;;;;0.30;0.30;;;;;;;;;;1838519;76;26326;-54
2022/07/08 13:09:05;;;;;;;0.42;0.37;;;;;;;;;;1847993;77;26296;-52
2022/07/08 13:11:32;;;;;;;0.33;0.33;;;;;;;;;;1843383;76;26296;-51
2022/07/08 13:13:59;;;;;;;0.35;0.35;;;;;;;;;;1839983;76;26374;-48
2022/07/08 13:16:26;;;;;;;0.30;0.30;;;;;;;;;;1835230;77;26264;-47
2022/07/08 13:18:54;;;;;;;0.30;0.30;;;;;;;;;;1837409;77;26350;-46
2022/07/08 13:21:21;;;;;;;0.40;0.40;;;;;;;;;;1833194;77;26328;-46
2022/07/08 13:23:48;;;;;;;0.40;0.40;;;;;;;;;;1836965;77;26289;-50
2022/07/08 13:26:16;;;;;;;0.20;0.20;;;;;;;;;;1836911;77;26722;-49
2022/07/08 13:28:43;;;;;;;0.37;0.37;;;;;;;;;;1831330;77;26369;-52
2022/07/08 13:31:11;;;;;;;0.30;0.30;;;;;;;;;;1833376;77;26408;-49
2022/07/08 13:33:39;;;;;;;1.05;0.47;;;;;;;;;;1828492;77;26321;-44
2022/07/08 13:36:06;;;;;;;1.20;0.35;;;;;;;;;;1836282;77;26338;-46
2022/07/08 13:38:33;;;;;;;1.07;0.47;;;;;;;;;;1835127;77;26608;-51
2022/07/08 13:41:01;;;;;;;0.25;0.25;;;;;;;;;;1835958;77;26635;-47
2022/07/08 13:43:28;;;;;;;0.30;0.30;;;;;;;;;;1831201;77;26308;-45
2022/07/08 13:45:55;;;;;;;0.30;0.30;;;;;;;;;;1841036;77;26407;-50
2022/07/08 13:48:23;;;;;;;0.47;0.33;;;;;;;;;;1836128;77;26295;-44
2022/07/08 13:50:50;;;;;;;0.33;0.33;;;;;;;;;;1840232;77;26345;-45
2022/07/08 13:53:17;;;;;;;1.25;0.20;;;;;;;;;;1832084;77;26305;-53
2022/07/08 13:55:45;;;;;;;0.40;0.40;;;;;;;;;;1829962;77;26329;-52
2022/07/08 13:58:12;;;;;;;0.33;0.33;;;;;;;;;;1837588;77;26313;-50
2022/07/08 14:00:39;;;;;;;0.62;0.28;;;;;;;;;;1839674;77;26381;-52
2022/07/08 14:03:07;;;;;;;1.72;0.50;;;;;;;;;;1832126;77;26333;-44
2022/07/08 14:05:35;;;;;;;0.40;0.40;;;;;;;;;;1833361;77;26809;-45
2022/07/08 14:08:02;;;;;;;0.35;0.30;;;;;;;;;;1826464;77;26274;-50
2022/07/08 14:10:30;;;;;;;0.53;0.42;;;;;;;;;;1825207;77;26323;-48
2022/07/08 14:12:57;;;;;;;0.40;0.40;;;;;;;;;;1834480;77;26295;-45
2022/07/08 14:15:24;;;;;;;1.15;0.40;;;;;;;;;;1834732;77;26358;-46
2022/07/08 14:17:51;;;;;;;2.30;0.88;;;;;;;;;;1835055;77;26739;-50
2022/07/08 14:20:19;;;;;;;1.22;0.30;;;;;;;;;;1833804;77;26280;-54
2022/07/08 14:22:46;;;;;;;1.30;0.40;;;;;;;;;;1838592;77;26265;-48
2022/07/08 14:25:13;;;;;;;0.30;0.30;;;;;;;;;;1834822;77;26329;-54
2022/07/08 14:27:41;;;;;;;0.33;0.33;;;;;;;;;;1832889;77;26736;-46
2022/07/08 14:30:10;;;;;;;0.65;0.45;;;;;;;;;;1831833;77;26318;-50
2022/07/08 14:32:37;;;;;;;1.22;0.45;;;;;;;;;;1835045;77;26369;-54
2022/07/08 14:35:05;;;;;;;0.33;0.33;;;;;;;;;;1836307;77;26258;-44
2022/07/08 14:37:32;;;;;;;0.30;0.30;;;;;;;;;;1835407;77;26819;-50
2022/07/08 14:39:59;;;;;;;0.40;0.40;;;;;;;;;;1837433;77;26660;-52
2022/07/08 14:42:27;;;;;;;0.30;0.30;;;;;;;;;;1836358;77;26272;-50
2022/07/08 14:44:54;;;;;;;0.50;0.50;;;;;;;;;;1830854;76;26340;-46
2022/07/08 14:47:21;;;;;;;0.45;0.35;;;;;;;;;;1836953;77;26330;-48
2022/07/08 14:49:49;;;;;;;0.40;0.40;;;;;;;;;;1834612;77;26349;-47
2022/07/08 14:52:18;;;;;;;0.85;0.30;;;;;;;;;;1837309;77;26325;-47
2022/07/08 14:54:45;;;;;;;0.50;0.40;;;;;;;;;;1834128;76;26362;-42